Time;durP1;ratioP1;P1;durP2;ratioP2;P2;SDS_P1;SDS_P2;PMS_P1;PMS_P2;Temp;Humidity;BMP_temperature;BMP_pressure;BME280_temperature;BME280_humidity;BME280_pressure;Samples;Min_cycle;Max_cycle;Signal;HPM_P1;HPM_P2
2024/01/12 00:00:29;;;;;;;53.80;29.90;;;0.10;99.90;;;;;;5093439;28;20291;-77
2024/01/12 00:02:55;;;;;;;53.87;30.50;;;0.10;99.90;;;;;;5093210;28;20209;-77
2024/01/12 00:05:21;;;;;;;51.43;30.23;;;0.10;99.90;;;;;;5092285;28;20205;-77
2024/01/12 00:07:46;;;;;;;53.83;30.20;;;0.10;99.90;;;;;;5091367;28;20228;-78
2024/01/12 00:10:12;;;;;;;53.10;29.67;;;0.10;99.90;;;;;;5091763;28;20298;-77
2024/01/12 00:12:37;;;;;;;49.50;29.37;;;0.10;99.90;;;;;;5093103;28;20586;-77
2024/01/12 00:15:05;;;;;;;46.10;28.97;;;0.10;99.90;;;;;;5091580;28;20228;-77
2024/01/12 00:17:30;;;;;;;49.90;29.97;;;0.10;99.90;;;;;;5092295;28;20206;-77
2024/01/12 00:19:56;;;;;;;52.77;31.37;;;0.10;99.90;;;;;;5093272;28;20178;-76
2024/01/12 00:22:21;;;;;;;54.43;30.27;;;0.10;99.90;;;;;;5091682;28;20239;-77
2024/01/12 00:24:47;;;;;;;54.03;30.17;;;0.10;99.90;;;;;;5092842;28;20178;-77
2024/01/12 00:27:12;;;;;;;52.00;29.30;;;0.10;99.90;;;;;;5092272;28;20202;-77
2024/01/12 00:29:38;;;;;;;60.17;29.73;;;0.10;99.90;;;;;;5091429;28;20202;-76
2024/01/12 00:32:05;;;;;;;53.90;30.47;;;0.10;99.90;;;;;;5092614;28;20646;-76
2024/01/12 00:34:31;;;;;;;58.67;32.73;;;0.10;99.90;;;;;;5092258;28;20545;-77
2024/01/12 00:36:57;;;;;;;59.07;33.73;;;0.10;99.90;;;;;;5092136;28;20209;-77
2024/01/12 00:39:23;;;;;;;69.77;35.80;;;0.10;99.90;;;;;;5094282;28;20178;-77
2024/01/12 00:41:50;;;;;;;72.80;35.33;;;0.20;99.90;;;;;;5094237;28;20166;-77
2024/01/12 00:44:18;;;;;;;56.83;30.20;;;0.10;99.90;;;;;;5093501;28;20607;-78
2024/01/12 00:46:44;;;;;;;64.17;34.10;;;0.10;99.90;;;;;;5091533;28;20208;-77
2024/01/12 00:49:10;;;;;;;77.10;34.53;;;0.10;99.90;;;;;;5092382;28;20195;-77
2024/01/12 00:51:35;;;;;;;66.80;35.03;;;0.10;99.90;;;;;;5092088;28;20223;-77
2024/01/12 00:54:01;;;;;;;64.13;34.87;;;0.20;99.90;;;;;;5093456;28;20550;-77
2024/01/12 00:56:26;;;;;;;73.90;36.83;;;0.20;99.90;;;;;;5095495;28;20263;-77
2024/01/12 00:58:52;;;;;;;75.37;36.73;;;0.10;99.90;;;;;;5094485;28;20182;-77
2024/01/12 01:01:18;;;;;;;69.20;35.53;;;0.20;99.90;;;;;;5090285;28;20288;-77
2024/01/12 01:03:43;;;;;;;70.30;36.90;;;0.10;99.90;;;;;;5090460;28;20194;-76
2024/01/12 01:06:09;;;;;;;62.43;35.93;;;0.20;99.90;;;;;;5091205;28;20204;-77
2024/01/12 01:08:34;;;;;;;69.57;34.90;;;0.20;99.90;;;;;;5092573;28;20546;-77
2024/01/12 01:11:00;;;;;;;57.97;32.77;;;0.20;99.90;;;;;;5092395;28;20610;-77
2024/01/12 01:13:26;;;;;;;55.93;30.70;;;0.20;99.90;;;;;;5091683;28;20257;-77
2024/01/12 01:15:51;;;;;;;51.57;30.57;;;0.20;99.90;;;;;;5090916;28;20185;-77
2024/01/12 01:18:17;;;;;;;52.03;30.77;;;0.20;99.90;;;;;;5094877;28;20181;-76
2024/01/12 01:20:43;;;;;;;65.37;34.33;;;0.20;99.90;;;;;;5096450;28;20177;-76
2024/01/12 01:23:08;;;;;;;67.63;34.13;;;0.20;99.90;;;;;;5095732;28;20708;-76
2024/01/12 01:25:36;;;;;;;68.17;34.13;;;0.20;99.90;;;;;;5096228;28;20209;-77
2024/01/12 01:28:02;;;;;;;56.97;30.30;;;0.20;99.90;;;;;;5096317;28;20174;-78
2024/01/12 01:30:28;;;;;;;66.13;34.57;;;0.20;99.90;;;;;;5094908;28;20258;-77
2024/01/12 01:32:53;;;;;;;70.43;34.73;;;0.20;99.90;;;;;;5095694;28;20193;-76
2024/01/12 01:35:19;;;;;;;60.00;32.10;;;0.20;99.90;;;;;;5096339;28;20179;-77
2024/01/12 01:37:44;;;;;;;58.77;31.90;;;0.20;99.90;;;;;;5095033;28;20190;-77
2024/01/12 01:40:10;;;;;;;61.07;32.27;;;0.20;99.90;;;;;;5095062;28;20204;-76
2024/01/12 01:42:36;;;;;;;56.93;31.40;;;0.20;99.90;;;;;;5096293;28;20523;-77
2024/01/12 01:45:02;;;;;;;54.93;30.57;;;0.20;99.90;;;;;;5095418;28;20198;-76
2024/01/12 01:47:28;;;;;;;58.30;31.20;;;0.20;99.90;;;;;;5094731;28;20263;-77
2024/01/12 01:49:54;;;;;;;59.23;32.90;;;0.20;99.90;;;;;;5096167;28;20202;-77
2024/01/12 01:52:23;;;;;;;61.47;32.67;;;0.20;99.90;;;;;;5094820;28;20180;-75
2024/01/12 01:54:48;;;;;;;66.40;34.00;;;0.20;99.90;;;;;;5098115;28;20239;-77
2024/01/12 01:57:15;;;;;;;70.13;36.50;;;0.30;99.90;;;;;;5096041;28;20599;-77
2024/01/12 01:59:41;;;;;;;54.30;31.83;;;0.30;99.90;;;;;;5095933;28;20178;-77
2024/01/12 02:02:08;;;;;;;51.57;29.90;;;0.30;99.90;;;;;;5095571;28;20242;-76
2024/01/12 02:04:34;;;;;;;49.53;29.53;;;0.20;99.90;;;;;;5094814;28;20263;-78
2024/01/12 02:07:00;;;;;;;58.93;33.03;;;0.30;99.90;;;;;;5095633;28;20664;-78
2024/01/12 02:09:28;;;;;;;54.63;29.80;;;0.30;99.90;;;;;;5095743;28;20190;-78
2024/01/12 02:11:54;;;;;;;60.73;32.47;;;0.30;99.90;;;;;;5097101;28;20177;-77
2024/01/12 02:14:19;;;;;;;61.87;32.47;;;0.30;99.90;;;;;;5094237;28;20178;-77
2024/01/12 02:16:45;;;;;;;60.60;33.03;;;0.30;99.90;;;;;;5096068;28;20250;-77
2024/01/12 02:19:11;;;;;;;67.67;34.93;;;0.30;99.90;;;;;;5094507;28;20658;-77
2024/01/12 02:21:36;;;;;;;60.17;31.63;;;0.30;99.90;;;;;;5094007;28;20251;-76
2024/01/12 02:24:02;;;;;;;60.43;32.63;;;0.30;99.90;;;;;;5092705;28;20284;-76
2024/01/12 02:26:27;;;;;;;58.57;30.90;;;0.30;99.90;;;;;;5095177;28;20276;-77
2024/01/12 02:28:53;;;;;;;57.87;32.47;;;0.30;99.90;;;;;;5093958;28;20546;-76
2024/01/12 02:31:19;;;;;;;59.67;30.70;;;0.30;99.90;;;;;;5093684;28;20178;-77
2024/01/12 02:33:48;;;;;;;57.77;30.50;;;0.30;99.90;;;;;;5094257;28;20194;-77
2024/01/12 02:36:14;;;;;;;58.60;30.37;;;0.30;99.90;;;;;;5093657;28;20678;-76
2024/01/12 02:38:39;;;;;;;56.50;30.50;;;0.30;99.90;;;;;;5094781;28;20172;-76
2024/01/12 02:41:05;;;;;;;55.90;31.50;;;0.30;99.90;;;;;;5093348;28;20522;-77
2024/01/12 02:43:30;;;;;;;58.80;31.67;;;0.30;99.90;;;;;;5092877;28;20646;-76
2024/01/12 02:45:56;;;;;;;55.57;31.57;;;0.30;99.90;;;;;;5093656;28;20201;-76
2024/01/12 02:48:21;;;;;;;55.73;30.93;;;0.30;99.90;;;;;;5094824;28;20181;-76
2024/01/12 02:50:47;;;;;;;57.80;30.50;;;0.30;99.90;;;;;;5094543;28;20213;-77
2024/01/12 02:53:12;;;;;;;59.10;32.97;;;0.30;99.90;;;;;;5093513;28;20182;-77
2024/01/12 02:55:38;;;;;;;58.83;31.03;;;0.30;99.90;;;;;;5094683;28;20645;-77
2024/01/12 02:58:03;;;;;;;53.90;31.47;;;0.30;99.90;;;;;;5095297;28;20261;-77
2024/01/12 03:00:30;;;;;;;55.13;30.33;;;0.30;99.90;;;;;;5093036;28;20174;-77
2024/01/12 03:02:56;;;;;;;52.90;30.63;;;0.30;99.90;;;;;;5094015;28;20315;-75
2024/01/12 03:05:22;;;;;;;55.73;31.97;;;0.30;99.90;;;;;;5095570;28;20301;-77
2024/01/12 03:07:47;;;;;;;54.17;29.53;;;0.30;99.90;;;;;;5095824;28;20186;-77
2024/01/12 03:10:15;;;;;;;55.10;30.60;;;0.30;99.90;;;;;;5095486;28;20632;-77
2024/01/12 03:12:41;;;;;;;59.20;31.63;;;0.30;99.90;;;;;;5094003;28;20182;-77
2024/01/12 03:15:06;;;;;;;61.10;31.33;;;0.30;99.90;;;;;;5094120;28;20167;-76
2024/01/12 03:17:32;;;;;;;51.60;29.90;;;0.30;99.90;;;;;;5094356;28;20202;-77
2024/01/12 03:19:57;;;;;;;51.20;29.23;;;0.30;99.90;;;;;;5094304;28;20180;-78
2024/01/12 03:22:23;;;;;;;61.57;30.70;;;0.30;99.90;;;;;;5091947;28;20288;-78
2024/01/12 03:24:48;;;;;;;57.27;30.80;;;0.30;99.90;;;;;;5092831;28;20551;-77
2024/01/12 03:27:14;;;;;;;62.17;31.13;;;0.30;99.90;;;;;;5092902;28;20738;-78
2024/01/12 03:29:39;;;;;;;52.93;28.83;;;0.40;99.90;;;;;;5094064;28;20206;-77
2024/01/12 03:32:05;;;;;;;54.70;29.97;;;0.30;99.90;;;;;;5093975;28;20175;-77
2024/01/12 03:34:31;;;;;;;50.57;30.07;;;0.30;99.90;;;;;;5092041;28;20181;-77
2024/01/12 03:36:56;;;;;;;57.33;29.93;;;0.30;99.90;;;;;;5092732;28;20277;-77
2024/01/12 03:39:23;;;;;;;56.40;30.60;;;0.30;99.90;;;;;;5093469;28;20605;-77
2024/01/12 03:41:49;;;;;;;58.37;32.13;;;0.30;99.90;;;;;;5092287;28;20668;-78
2024/01/12 03:44:14;;;;;;;57.10;31.47;;;0.40;99.90;;;;;;5091743;28;20194;-77
2024/01/12 03:50:02;;;;;;;57.70;29.03;;;0.30;99.90;;;;;;5094271;28;20197;-77
2024/01/12 03:52:27;;;;;;;60.83;31.10;;;0.40;99.90;;;;;;5092494;28;20170;-76
2024/01/12 03:54:53;;;;;;;54.23;29.77;;;0.30;99.90;;;;;;5081633;28;20232;-78
2024/01/12 03:57:18;;;;;;;57.17;29.83;;;0.40;99.90;;;;;;5074213;28;20194;-77
2024/01/12 03:59:44;;;;;;;55.53;30.50;;;0.30;99.90;;;;;;5073344;28;20220;-77
2024/01/12 04:02:09;;;;;;;60.17;31.93;;;0.30;99.90;;;;;;5073441;28;20674;-77
2024/01/12 04:04:35;;;;;;;56.87;29.87;;;0.40;99.90;;;;;;5088363;28;20600;-77
2024/01/12 04:07:00;;;;;;;57.37;30.07;;;0.40;99.90;;;;;;5093561;28;20736;-76
2024/01/12 04:09:26;;;;;;;61.23;31.17;;;0.40;99.90;;;;;;5093857;28;20277;-77
2024/01/12 04:11:51;;;;;;;60.17;30.80;;;0.40;99.90;;;;;;5093360;28;20188;-77
2024/01/12 04:14:17;;;;;;;55.80;30.63;;;0.40;99.90;;;;;;5092670;28;20190;-78
2024/01/12 04:16:42;;;;;;;60.13;31.23;;;0.40;99.90;;;;;;5092339;28;20270;-77
2024/01/12 04:19:08;;;;;;;56.43;29.73;;;0.40;99.90;;;;;;5093064;28;20174;-77
2024/01/12 04:21:33;;;;;;;59.27;31.87;;;0.40;99.90;;;;;;5092923;28;20194;-77
2024/01/12 04:24:00;;;;;;;55.50;31.10;;;0.40;99.90;;;;;;5092515;28;20690;-77
2024/01/12 04:26:25;;;;;;;62.80;31.37;;;0.40;99.90;;;;;;5091553;28;20289;-77
2024/01/12 04:28:51;;;;;;;62.33;29.63;;;0.40;99.90;;;;;;5093093;28;20262;-77
2024/01/12 04:31:16;;;;;;;57.83;31.40;;;0.40;99.90;;;;;;5092749;28;20239;-77
2024/01/12 04:33:42;;;;;;;54.80;29.80;;;0.40;99.90;;;;;;5092296;28;20297;-77
2024/01/12 04:36:07;;;;;;;55.17;29.50;;;0.40;99.90;;;;;;5092683;28;20182;-77
2024/01/12 04:38:33;;;;;;;60.13;30.50;;;0.40;99.90;;;;;;5091424;28;20634;-77
2024/01/12 04:40:58;;;;;;;59.27;30.63;;;0.40;99.90;;;;;;5092821;28;20166;-77
2024/01/12 04:43:24;;;;;;;64.83;30.80;;;0.40;99.90;;;;;;5090524;28;20201;-77
2024/01/12 04:45:49;;;;;;;51.73;29.37;;;0.40;99.90;;;;;;5092647;28;20174;-75
2024/01/12 04:48:15;;;;;;;55.53;29.03;;;0.40;99.90;;;;;;5092634;28;20173;-76
2024/01/12 04:50:40;;;;;;;55.57;29.37;;;0.40;99.90;;;;;;5092086;28;20198;-76
2024/01/12 04:53:06;;;;;;;55.60;31.10;;;0.40;99.90;;;;;;5090729;28;20181;-77
2024/01/12 04:55:31;;;;;;;54.83;29.50;;;0.40;99.90;;;;;;5092691;28;20174;-77
2024/01/12 04:57:57;;;;;;;59.60;30.43;;;0.40;99.90;;;;;;5092862;28;20189;-76
2024/01/12 05:00:22;;;;;;;58.50;31.03;;;0.40;99.90;;;;;;5091325;28;20174;-76
2024/01/12 05:02:48;;;;;;;59.40;30.90;;;0.40;99.90;;;;;;5091819;28;20556;-77
2024/01/12 05:05:14;;;;;;;62.10;30.07;;;0.40;99.90;;;;;;5092400;28;20167;-76
2024/01/12 05:07:40;;;;;;;61.60;31.50;;;0.40;99.90;;;;;;5093152;28;20684;-75
2024/01/12 05:10:06;;;;;;;64.63;32.77;;;0.40;99.90;;;;;;5099639;28;20202;-77
2024/01/12 05:12:34;;;;;;;60.53;31.23;;;0.40;99.90;;;;;;5092110;28;20185;-76
2024/01/12 05:15:00;;;;;;;67.33;31.83;;;0.40;99.90;;;;;;5092869;28;20214;-76
2024/01/12 05:17:27;;;;;;;69.37;32.30;;;0.40;99.90;;;;;;5092434;28;20182;-77
2024/01/12 05:19:52;;;;;;;65.67;31.80;;;0.40;99.90;;;;;;5093475;28;20189;-77
2024/01/12 05:22:18;;;;;;;55.87;29.87;;;0.40;99.90;;;;;;5097060;28;20222;-77
2024/01/12 05:24:43;;;;;;;71.03;33.03;;;0.40;99.90;;;;;;5094850;28;20170;-77
2024/01/12 05:27:09;;;;;;;59.10;30.00;;;0.40;99.90;;;;;;5092318;28;20577;-77
2024/01/12 05:29:35;;;;;;;63.13;32.40;;;0.40;99.90;;;;;;5091354;28;20622;-76
2024/01/12 05:32:01;;;;;;;63.47;32.10;;;0.40;99.90;;;;;;5091196;28;20221;-77
2024/01/12 05:34:26;;;;;;;63.53;31.57;;;0.40;99.90;;;;;;5093124;28;20186;-77
2024/01/12 05:36:52;;;;;;;70.27;33.37;;;0.40;99.90;;;;;;5091454;28;20692;-77
2024/01/12 05:39:18;;;;;;;61.50;32.20;;;0.40;99.90;;;;;;5090519;28;20699;-77
2024/01/12 05:41:43;;;;;;;66.23;31.53;;;0.40;99.90;;;;;;5092929;28;20618;-77
2024/01/12 05:44:09;;;;;;;68.20;31.87;;;0.40;99.90;;;;;;5091285;28;20185;-77
2024/01/12 05:46:34;;;;;;;75.03;32.40;;;0.40;99.90;;;;;;5090300;28;20210;-76
2024/01/12 05:49:04;;;;;;;77.37;35.10;;;0.40;99.90;;;;;;5090977;28;20584;-77
2024/01/12 05:51:29;;;;;;;74.73;34.13;;;0.40;99.90;;;;;;5092367;28;20166;-76
2024/01/12 05:53:55;;;;;;;81.00;33.37;;;0.40;99.90;;;;;;5091041;28;20311;-77
2024/01/12 05:56:21;;;;;;;81.53;36.03;;;0.40;99.90;;;;;;5090270;28;20202;-77
2024/01/12 05:58:46;;;;;;;74.83;33.80;;;0.40;99.90;;;;;;5092314;28;20215;-79
2024/01/12 06:01:12;;;;;;;72.17;33.17;;;0.40;99.90;;;;;;5093624;28;20174;-76
2024/01/12 06:03:37;;;;;;;74.80;33.03;;;0.40;99.90;;;;;;5093840;28;20174;-77
2024/01/12 06:06:03;;;;;;;68.50;34.03;;;0.40;99.90;;;;;;5094706;28;20301;-77
2024/01/12 06:08:29;;;;;;;76.93;33.07;;;0.40;99.90;;;;;;5095030;28;20182;-76
2024/01/12 06:10:54;;;;;;;76.77;32.90;;;0.40;99.90;;;;;;5095961;28;20209;-77
2024/01/12 06:13:20;;;;;;;80.97;35.83;;;0.40;99.90;;;;;;5094381;28;20258;-77
2024/01/12 06:15:45;;;;;;;73.20;34.23;;;0.40;99.90;;;;;;5094447;28;20171;-76
2024/01/12 06:18:11;;;;;;;86.03;35.97;;;0.40;99.90;;;;;;5095981;28;20653;-76
2024/01/12 06:20:36;;;;;;;79.47;34.77;;;0.50;99.90;;;;;;5095004;28;20178;-77
2024/01/12 06:23:02;;;;;;;97.10;36.20;;;0.50;99.90;;;;;;5095520;28;20182;-78
2024/01/12 06:25:29;;;;;;;102.67;36.60;;;0.40;99.90;;;;;;5094320;28;20170;-76
2024/01/12 06:27:55;;;;;;;99.70;39.07;;;0.50;99.90;;;;;;5095694;28;20204;-77
2024/01/12 06:30:20;;;;;;;96.23;36.73;;;0.40;99.90;;;;;;5095021;28;20644;-76
2024/01/12 06:32:46;;;;;;;86.40;37.50;;;0.50;99.90;;;;;;5094751;28;20189;-76
2024/01/12 06:35:12;;;;;;;88.50;35.53;;;0.40;99.90;;;;;;5093544;28;20181;-77
2024/01/12 06:37:38;;;;;;;93.60;36.97;;;0.50;99.90;;;;;;5094753;28;20628;-76
2024/01/12 06:40:04;;;;;;;87.73;34.87;;;0.50;99.90;;;;;;5093417;28;20178;-75
2024/01/12 06:42:31;;;;;;;95.93;37.00;;;0.50;99.90;;;;;;5094702;28;20701;-76
2024/01/12 06:44:57;;;;;;;92.37;38.80;;;0.60;99.90;;;;;;5093030;28;20208;-77
2024/01/12 06:47:22;;;;;;;93.53;37.13;;;0.50;99.90;;;;;;5094164;28;20226;-77
2024/01/12 06:49:48;;;;;;;106.97;38.90;;;0.50;99.90;;;;;;5094773;28;20206;-76
2024/01/12 06:52:13;;;;;;;97.43;37.47;;;0.50;99.90;;;;;;5094502;28;20172;-76
2024/01/12 06:54:43;;;;;;;95.00;36.90;;;0.50;99.90;;;;;;5093306;28;20547;-76
2024/01/12 06:57:09;;;;;;;84.53;34.50;;;0.50;99.90;;;;;;5094663;28;20247;-76
2024/01/12 06:59:34;;;;;;;99.30;37.23;;;0.50;99.90;;;;;;5094464;28;20543;-76
2024/01/12 07:02:00;;;;;;;81.63;34.87;;;0.50;99.90;;;;;;5094434;28;20170;-76
2024/01/12 07:04:25;;;;;;;98.17;37.43;;;0.50;99.90;;;;;;5094785;28;20654;-75
2024/01/12 07:06:52;;;;;;;95.93;37.53;;;0.50;99.90;;;;;;5094272;28;20191;-76
2024/01/12 07:09:18;;;;;;;107.00;39.20;;;0.50;99.90;;;;;;5094207;28;20194;-76
2024/01/12 07:11:44;;;;;;;107.07;38.93;;;0.50;99.90;;;;;;5093463;28;20178;-76
2024/01/12 07:14:11;;;;;;;100.37;38.67;;;0.50;99.90;;;;;;5092363;28;20171;-78
2024/01/12 07:16:37;;;;;;;99.70;35.77;;;0.60;99.90;;;;;;5092723;28;20193;-77
2024/01/12 07:19:03;;;;;;;88.70;36.43;;;0.50;99.90;;;;;;5094398;28;20205;-76
2024/01/12 07:21:28;;;;;;;95.00;36.93;;;0.50;99.90;;;;;;5094235;28;20732;-75
2024/01/12 07:23:54;;;;;;;104.03;37.83;;;0.50;99.90;;;;;;5093898;28;20200;-74
2024/01/12 07:26:19;;;;;;;107.27;41.53;;;0.50;99.90;;;;;;5093784;28;20202;-75
2024/01/12 07:28:46;;;;;;;127.00;41.23;;;0.50;99.90;;;;;;5092527;28;20341;-76
2024/01/12 07:31:11;;;;;;;114.30;41.33;;;0.50;99.90;;;;;;5091834;28;20269;-76
2024/01/12 07:33:37;;;;;;;114.77;40.97;;;0.60;99.90;;;;;;5094268;28;20278;-76
2024/01/12 07:36:03;;;;;;;98.90;38.77;;;0.60;99.90;;;;;;5099490;28;20201;-76
2024/01/12 07:38:29;;;;;;;91.13;37.73;;;0.60;99.90;;;;;;5097271;28;20185;-76
2024/01/12 07:40:54;;;;;;;91.13;36.17;;;0.50;99.90;;;;;;5093599;28;20173;-75
2024/01/12 07:43:20;;;;;;;93.67;36.93;;;0.50;99.90;;;;;;5093907;28;20251;-76
2024/01/12 07:45:45;;;;;;;96.67;37.93;;;0.60;99.90;;;;;;5092597;28;20292;-75
2024/01/12 07:48:11;;;;;;;96.50;36.90;;;0.60;99.90;;;;;;5093053;28;20326;-75
2024/01/12 07:50:37;;;;;;;98.00;36.60;;;0.50;99.90;;;;;;5093243;28;20622;-75
2024/01/12 07:53:02;;;;;;;100.23;37.10;;;0.60;99.90;;;;;;5093269;28;20683;-76
2024/01/12 07:55:28;;;;;;;94.40;37.40;;;0.60;99.90;;;;;;5091975;28;20177;-76
2024/01/12 07:57:54;;;;;;;89.60;35.67;;;0.60;99.90;;;;;;5093143;28;20577;-75
2024/01/12 08:00:19;;;;;;;90.10;36.23;;;0.60;99.90;;;;;;5093184;28;20174;-76
2024/01/12 08:02:45;;;;;;;88.50;34.70;;;0.60;99.90;;;;;;5091165;28;20182;-77
2024/01/12 08:05:11;;;;;;;89.80;35.27;;;0.60;99.90;;;;;;5093383;28;20213;-75
2024/01/12 08:07:37;;;;;;;91.53;34.53;;;0.60;99.90;;;;;;5091608;28;20221;-76
2024/01/12 08:10:06;;;;;;;83.07;34.87;;;0.60;99.90;;;;;;5092896;28;20227;-75
2024/01/12 08:12:32;;;;;;;87.40;32.90;;;0.60;99.90;;;;;;5092949;28;20178;-76
2024/01/12 08:14:57;;;;;;;98.37;38.07;;;0.60;99.90;;;;;;5091531;28;20170;-75
2024/01/12 08:17:23;;;;;;;94.43;36.43;;;0.60;99.90;;;;;;5092989;28;20194;-75
2024/01/12 08:19:49;;;;;;;84.50;35.00;;;0.60;99.90;;;;;;5093813;28;20190;-75
2024/01/12 08:22:15;;;;;;;84.30;34.50;;;0.60;99.90;;;;;;5091567;28;20181;-76
2024/01/12 08:24:40;;;;;;;90.90;34.63;;;0.60;99.90;;;;;;5092925;28;20174;-76
2024/01/12 08:27:06;;;;;;;88.67;36.33;;;0.60;99.90;;;;;;5091819;28;20190;-76
2024/01/12 08:29:32;;;;;;;104.17;39.20;;;0.60;99.90;;;;;;5091356;28;20233;-76
2024/01/12 08:31:58;;;;;;;99.67;36.87;;;0.70;99.90;;;;;;5092594;28;20170;-77
2024/01/12 08:34:24;;;;;;;84.13;33.10;;;0.70;99.90;;;;;;5091354;28;20181;-76
2024/01/12 08:36:50;;;;;;;94.17;36.10;;;0.70;99.90;;;;;;5092867;28;20205;-76
2024/01/12 08:39:17;;;;;;;90.13;35.30;;;0.70;99.90;;;;;;5092671;28;20169;-77
2024/01/12 08:41:42;;;;;;;87.20;35.30;;;0.70;99.90;;;;;;5092747;28;20227;-76
2024/01/12 08:44:08;;;;;;;97.90;35.77;;;0.70;99.90;;;;;;5092493;28;20170;-76
2024/01/12 08:46:33;;;;;;;91.20;35.50;;;0.70;99.90;;;;;;5091307;28;20271;-77
2024/01/12 08:49:00;;;;;;;81.93;34.27;;;0.70;99.90;;;;;;5092437;28;20537;-76
2024/01/12 08:51:25;;;;;;;89.43;35.20;;;0.70;99.90;;;;;;5092938;28;20177;-76
2024/01/12 08:53:51;;;;;;;84.77;33.97;;;0.70;99.90;;;;;;5092369;28;20163;-74
2024/01/12 08:56:17;;;;;;;82.97;34.47;;;0.70;99.90;;;;;;5092285;28;20190;-76
2024/01/12 08:58:43;;;;;;;85.37;33.67;;;0.70;99.90;;;;;;5092413;28;20240;-75
2024/01/12 09:01:08;;;;;;;81.33;33.03;;;0.70;99.90;;;;;;5091581;28;20275;-76
2024/01/12 09:03:34;;;;;;;94.40;34.13;;;0.70;99.90;;;;;;5090929;28;20257;-75
2024/01/12 09:05:59;;;;;;;92.57;36.77;;;0.70;99.90;;;;;;5091306;28;20722;-76
2024/01/12 09:08:25;;;;;;;95.13;36.73;;;0.80;99.90;;;;;;5092292;28;20296;-75
2024/01/12 09:10:50;;;;;;;94.07;34.50;;;0.80;99.90;;;;;;5092125;28;20288;-75
2024/01/12 09:13:16;;;;;;;93.13;34.80;;;0.80;99.90;;;;;;5092275;28;20179;-76
2024/01/12 09:15:41;;;;;;;89.47;34.73;;;0.80;99.90;;;;;;5090784;28;20219;-76
2024/01/12 09:18:08;;;;;;;81.53;33.63;;;0.80;99.90;;;;;;5090612;28;20183;-76
2024/01/12 09:20:33;;;;;;;81.67;33.53;;;0.80;99.90;;;;;;5092081;28;20710;-76
2024/01/12 09:22:59;;;;;;;86.20;35.17;;;0.80;99.90;;;;;;5090766;28;20205;-75
2024/01/12 09:25:25;;;;;;;83.33;33.70;;;0.80;99.90;;;;;;5090675;28;20228;-76
2024/01/12 09:27:52;;;;;;;80.27;32.60;;;0.80;99.90;;;;;;5092183;28;20295;-76
2024/01/12 09:30:18;;;;;;;88.67;35.50;;;0.80;99.90;;;;;;5090679;28;20208;-76
2024/01/12 09:32:44;;;;;;;87.37;34.57;;;0.80;99.90;;;;;;5091875;28;20696;-76
2024/01/12 09:35:09;;;;;;;79.80;33.57;;;0.80;99.90;;;;;;5091993;28;20175;-76
2024/01/12 09:37:36;;;;;;;80.63;33.40;;;0.80;99.90;;;;;;5092922;28;20186;-76
2024/01/12 09:40:02;;;;;;;78.13;31.27;;;0.80;99.90;;;;;;5095856;28;20174;-76
2024/01/12 09:42:32;;;;;;;75.20;33.27;;;0.80;99.90;;;;;;5094786;28;20175;-76
2024/01/12 09:44:58;;;;;;;86.83;35.20;;;0.80;99.90;;;;;;5094836;28;20177;-76
2024/01/12 09:47:25;;;;;;;75.60;32.03;;;0.90;99.90;;;;;;5095873;28;20610;-76
2024/01/12 09:49:52;;;;;;;83.57;33.73;;;0.90;99.90;;;;;;5098185;28;20626;-75
2024/01/12 09:52:18;;;;;;;80.07;33.43;;;0.90;99.90;;;;;;5096331;28;20644;-77
2024/01/12 09:54:44;;;;;;;80.90;34.10;;;0.90;99.90;;;;;;5096063;28;20236;-76
2024/01/12 09:57:11;;;;;;;86.47;33.93;;;0.90;99.90;;;;;;5094456;28;20289;-76
2024/01/12 09:59:38;;;;;;;85.83;35.43;;;0.90;99.90;;;;;;5095774;28;20178;-76
2024/01/12 10:02:08;;;;;;;77.80;33.00;;;0.90;99.90;;;;;;5095496;28;20220;-76
2024/01/12 10:04:35;;;;;;;84.73;35.30;;;0.90;99.90;;;;;;5095758;28;20163;-76
2024/01/12 10:07:00;;;;;;;79.43;32.00;;;0.90;99.90;;;;;;5092523;28;20247;-78
2024/01/12 10:09:26;;;;;;;89.87;34.67;;;0.90;99.90;;;;;;5095900;28;20198;-76
2024/01/12 10:11:55;;;;;;;87.87;35.37;;;0.90;99.90;;;;;;5097136;28;20174;-76
2024/01/12 10:14:25;;;;;;;81.10;33.30;;;1.00;99.90;;;;;;5095307;28;20177;-76
2024/01/12 10:16:54;;;;;;;98.63;33.17;;;1.00;99.90;;;;;;5094053;28;20231;-76
2024/01/12 10:19:20;;;;;;;86.33;33.90;;;1.00;99.90;;;;;;5095227;28;20170;-76
2024/01/12 10:21:46;;;;;;;95.57;35.30;;;1.00;99.90;;;;;;5095542;28;20588;-76
2024/01/12 10:24:17;;;;;;;80.00;32.20;;;1.00;99.90;;;;;;5094628;28;20170;-77
2024/01/12 10:26:43;;;;;;;84.63;33.80;;;1.10;99.90;;;;;;5093948;28;20697;-77
2024/01/12 10:29:09;;;;;;;79.33;31.73;;;1.10;99.90;;;;;;5095317;28;20198;-77
2024/01/12 10:31:39;;;;;;;81.77;31.83;;;1.00;99.90;;;;;;5095779;28;20175;-75
2024/01/12 10:34:08;;;;;;;59.37;26.57;;;1.10;99.90;;;;;;5093388;28;20251;-76
2024/01/12 10:36:36;;;;;;;66.50;27.83;;;1.10;99.90;;;;;;5093453;28;20186;-76
2024/01/12 10:39:03;;;;;;;65.67;27.30;;;1.10;99.90;;;;;;5095232;28;20650;-76
2024/01/12 10:41:29;;;;;;;58.47;27.93;;;1.10;99.90;;;;;;5094722;28;20646;-76
2024/01/12 10:43:58;;;;;;;55.17;25.87;;;1.10;99.90;;;;;;5093346;28;20174;-75
2024/01/12 10:46:35;;;;;;;60.20;27.17;;;1.20;99.90;;;;;;5094609;28;20677;-76
2024/01/12 10:49:21;;;;;;;64.40;27.00;;;1.20;99.90;;;;;;5092148;28;20174;-76
2024/01/12 10:52:01;;;;;;;58.93;25.50;;;1.20;99.90;;;;;;5094400;28;20170;-76
2024/01/12 10:54:32;;;;;;;55.73;24.17;;;1.20;99.90;;;;;;5094505;28;20158;-76
2024/01/12 10:56:59;;;;;;;56.33;24.63;;;1.30;99.90;;;;;;5093040;28;20201;-75
2024/01/12 10:59:27;;;;;;;55.23;25.63;;;1.30;99.90;;;;;;5094311;28;20177;-75
2024/01/12 11:01:53;;;;;;;61.20;25.30;;;1.30;99.90;;;;;;5094320;28;20555;-75
2024/01/12 11:04:21;;;;;;;58.23;28.53;;;1.40;99.90;;;;;;5094270;28;20178;-75
2024/01/12 11:06:55;;;;;;;81.43;33.63;;;1.40;99.90;;;;;;5094087;28;20193;-77
2024/01/12 11:09:22;;;;;;;66.43;32.33;;;1.40;99.90;;;;;;5094307;28;20192;-75
2024/01/12 11:11:56;;;;;;;64.37;32.40;;;1.40;99.90;;;;;;5093994;28;20257;-75
2024/01/12 11:14:22;;;;;;;65.13;32.20;;;1.50;99.90;;;;;;5094131;28;20143;-75
2024/01/12 11:16:50;;;;;;;68.50;30.63;;;1.50;99.90;;;;;;5093855;28;20178;-75
2024/01/12 11:19:18;;;;;;;60.33;29.87;;;1.50;99.90;;;;;;5092704;28;20182;-76
2024/01/12 11:21:44;;;;;;;63.53;29.17;;;1.50;99.90;;;;;;5093782;28;20252;-74
2024/01/12 11:24:13;;;;;;;56.83;27.73;;;1.60;99.90;;;;;;5092702;28;20251;-75
2024/01/12 11:26:41;;;;;;;63.73;27.53;;;1.60;99.90;;;;;;5093727;28;20197;-75
2024/01/12 11:29:13;;;;;;;60.20;27.33;;;1.60;99.90;;;;;;5093890;28;20565;-75
2024/01/12 11:31:48;;;;;;;64.43;29.10;;;1.60;99.90;;;;;;5093935;28;20614;-74
2024/01/12 11:34:16;;;;;;;70.07;30.30;;;1.70;99.90;;;;;;5094079;28;20245;-75
2024/01/12 11:36:41;;;;;;;58.47;28.77;;;1.70;99.90;;;;;;5092110;28;20202;-76
2024/01/12 11:39:11;;;;;;;60.17;30.10;;;1.70;99.90;;;;;;5093353;28;20174;-76
2024/01/12 11:41:37;;;;;;;67.27;30.37;;;1.70;99.90;;;;;;5093375;28;20185;-76
2024/01/12 11:44:02;;;;;;;64.67;33.97;;;1.70;99.90;;;;;;5093384;28;20182;-77
2024/01/12 11:46:29;;;;;;;55.17;29.37;;;1.70;99.90;;;;;;5092345;28;20190;-76
2024/01/12 11:48:54;;;;;;;58.43;26.87;;;1.70;99.90;;;;;;5093232;28;20190;-75
2024/01/12 11:51:24;;;;;;;60.20;26.70;;;1.70;99.90;;;;;;5091780;28;20208;-75
2024/01/12 11:53:52;;;;;;;50.87;24.50;;;1.70;99.90;;;;;;5091919;28;20167;-75
2024/01/12 11:56:20;;;;;;;44.93;22.47;;;1.70;99.90;;;;;;5093174;28;20633;-76
2024/01/12 11:58:45;;;;;;;41.63;21.20;;;1.70;99.90;;;;;;5093593;28;20250;-75
2024/01/12 12:01:11;;;;;;;52.80;21.57;;;1.70;99.90;;;;;;5092895;28;20197;-75
2024/01/12 12:03:37;;;;;;;46.17;22.17;;;1.70;99.90;;;;;;5093230;28;20174;-75
2024/01/12 12:06:03;;;;;;;43.60;19.00;;;1.70;99.90;;;;;;5091730;28;20198;-75
2024/01/12 12:08:28;;;;;;;45.83;21.43;;;1.70;99.90;;;;;;5093152;28;20166;-75
2024/01/12 12:10:55;;;;;;;40.27;19.37;;;1.70;99.90;;;;;;5091453;28;20204;-75
2024/01/12 12:13:21;;;;;;;44.23;19.87;;;1.70;99.90;;;;;;5092869;28;20669;-75
2024/01/12 12:15:46;;;;;;;45.13;19.73;;;1.70;99.90;;;;;;5092910;28;20163;-75
2024/01/12 12:18:13;;;;;;;43.47;19.10;;;1.70;99.90;;;;;;5091212;28;20180;-75
2024/01/12 12:20:41;;;;;;;46.87;17.63;;;1.70;99.90;;;;;;5092521;28;20546;-75
2024/01/12 12:23:07;;;;;;;47.90;17.60;;;1.70;99.90;;;;;;5092451;28;20177;-76
2024/01/12 12:25:32;;;;;;;43.20;19.37;;;1.60;99.90;;;;;;5092280;28;20562;-76
2024/01/12 12:27:58;;;;;;;37.70;16.30;;;1.70;99.90;;;;;;5092256;28;20207;-75
2024/01/12 12:30:27;;;;;;;34.93;16.93;;;1.60;99.90;;;;;;5092245;28;20201;-76
2024/01/12 12:32:53;;;;;;;36.37;17.97;;;1.70;99.90;;;;;;5090674;28;20190;-75